sensor_id;sensor_type;location;lat;lon;timestamp;P1;durP1;ratioP1;P2;durP2;ratioP2
3567;SDS011;1798;48.486;9.232;2023-09-18T00:00:24;8.23;;;5.13;;
3567;SDS011;1798;48.486;9.232;2023-09-18T00:02:52;11.10;;;5.53;;
3567;SDS011;1798;48.486;9.232;2023-09-18T00:05:18;12.43;;;4.70;;
3567;SDS011;1798;48.486;9.232;2023-09-18T00:07:45;14.70;;;5.60;;
3567;SDS011;1798;48.486;9.232;2023-09-18T00:10:12;18.90;;;5.30;;
3567;SDS011;1798;48.486;9.232;2023-09-18T00:12:39;10.47;;;4.77;;
3567;SDS011;1798;48.486;9.232;2023-09-18T00:15:06;9.90;;;4.77;;
3567;SDS011;1798;48.486;9.232;2023-09-18T00:17:34;12.73;;;5.20;;
3567;SDS011;1798;48.486;9.232;2023-09-18T00:20:03;13.63;;;4.93;;
3567;SDS011;1798;48.486;9.232;2023-09-18T00:22:31;10.60;;;4.07;;
3567;SDS011;1798;48.486;9.232;2023-09-18T00:24:58;14.47;;;5.10;;
3567;SDS011;1798;48.486;9.232;2023-09-18T00:27:26;18.30;;;5.10;;
3567;SDS011;1798;48.486;9.232;2023-09-18T00:29:53;13.13;;;4.87;;
3567;SDS011;1798;48.486;9.232;2023-09-18T00:32:20;12.00;;;5.50;;
3567;SDS011;1798;48.486;9.232;2023-09-18T00:34:46;13.00;;;5.20;;
3567;SDS011;1798;48.486;9.232;2023-09-18T00:37:14;15.40;;;5.03;;
3567;SDS011;1798;48.486;9.232;2023-09-18T00:39:41;11.97;;;4.90;;
3567;SDS011;1798;48.486;9.232;2023-09-18T00:42:08;8.50;;;4.83;;
3567;SDS011;1798;48.486;9.232;2023-09-18T00:44:38;26.17;;;5.13;;
3567;SDS011;1798;48.486;9.232;2023-09-18T00:47:06;22.57;;;4.77;;
3567;SDS011;1798;48.486;9.232;2023-09-18T00:49:32;12.80;;;4.57;;
3567;SDS011;1798;48.486;9.232;2023-09-18T00:51:59;8.00;;;4.57;;
3567;SDS011;1798;48.486;9.232;2023-09-18T00:54:27;19.10;;;5.50;;
3567;SDS011;1798;48.486;9.232;2023-09-18T00:56:54;8.30;;;4.63;;
3567;SDS011;1798;48.486;9.232;2023-09-18T00:59:21;11.80;;;4.80;;
3567;SDS011;1798;48.486;9.232;2023-09-18T01:01:48;11.60;;;5.50;;
3567;SDS011;1798;48.486;9.232;2023-09-18T01:04:15;19.33;;;5.40;;
3567;SDS011;1798;48.486;9.232;2023-09-18T01:06:42;9.87;;;4.90;;
3567;SDS011;1798;48.486;9.232;2023-09-18T01:09:09;14.73;;;5.53;;
3567;SDS011;1798;48.486;9.232;2023-09-18T01:11:43;16.40;;;5.43;;
3567;SDS011;1798;48.486;9.232;2023-09-18T01:14:17;10.00;;;5.00;;
3567;SDS011;1798;48.486;9.232;2023-09-18T01:16:47;29.80;;;6.20;;
3567;SDS011;1798;48.486;9.232;2023-09-18T01:19:33;11.93;;;5.13;;
3567;SDS011;1798;48.486;9.232;2023-09-18T01:22:01;17.10;;;5.73;;
3567;SDS011;1798;48.486;9.232;2023-09-18T01:24:29;9.23;;;4.70;;
3567;SDS011;1798;48.486;9.232;2023-09-18T01:26:56;17.13;;;5.13;;
3567;SDS011;1798;48.486;9.232;2023-09-18T01:29:22;11.80;;;6.10;;
3567;SDS011;1798;48.486;9.232;2023-09-18T01:31:49;16.53;;;5.73;;
3567;SDS011;1798;48.486;9.232;2023-09-18T01:34:17;16.30;;;5.03;;
3567;SDS011;1798;48.486;9.232;2023-09-18T01:36:45;9.83;;;4.90;;
3567;SDS011;1798;48.486;9.232;2023-09-18T01:39:12;24.00;;;6.37;;
3567;SDS011;1798;48.486;9.232;2023-09-18T01:41:40;8.13;;;5.17;;
3567;SDS011;1798;48.486;9.232;2023-09-18T01:44:07;8.23;;;4.77;;
3567;SDS011;1798;48.486;9.232;2023-09-18T01:46:34;7.83;;;4.20;;
3567;SDS011;1798;48.486;9.232;2023-09-18T01:49:02;9.67;;;4.60;;
3567;SDS011;1798;48.486;9.232;2023-09-18T01:51:29;7.37;;;4.27;;
3567;SDS011;1798;48.486;9.232;2023-09-18T01:53:56;11.87;;;5.90;;
3567;SDS011;1798;48.486;9.232;2023-09-18T01:56:23;13.70;;;5.60;;
3567;SDS011;1798;48.486;9.232;2023-09-18T01:58:51;8.50;;;4.50;;
3567;SDS011;1798;48.486;9.232;2023-09-18T02:01:18;13.70;;;4.50;;
3567;SDS011;1798;48.486;9.232;2023-09-18T02:03:44;8.00;;;4.30;;
3567;SDS011;1798;48.486;9.232;2023-09-18T02:06:12;12.53;;;4.73;;
3567;SDS011;1798;48.486;9.232;2023-09-18T02:08:39;10.53;;;5.27;;
3567;SDS011;1798;48.486;9.232;2023-09-18T02:11:05;15.70;;;5.40;;
3567;SDS011;1798;48.486;9.232;2023-09-18T02:13:32;12.40;;;4.50;;
3567;SDS011;1798;48.486;9.232;2023-09-18T02:16:00;12.33;;;5.70;;
3567;SDS011;1798;48.486;9.232;2023-09-18T02:18:28;11.83;;;5.63;;
3567;SDS011;1798;48.486;9.232;2023-09-18T02:20:55;17.03;;;5.30;;
3567;SDS011;1798;48.486;9.232;2023-09-18T02:23:21;11.77;;;5.30;;
3567;SDS011;1798;48.486;9.232;2023-09-18T02:25:54;14.63;;;6.00;;
3567;SDS011;1798;48.486;9.232;2023-09-18T02:28:21;12.43;;;5.03;;
3567;SDS011;1798;48.486;9.232;2023-09-18T02:30:48;11.57;;;5.37;;
3567;SDS011;1798;48.486;9.232;2023-09-18T02:33:16;11.03;;;4.50;;
3567;SDS011;1798;48.486;9.232;2023-09-18T02:35:43;12.00;;;5.07;;
3567;SDS011;1798;48.486;9.232;2023-09-18T02:38:10;14.63;;;4.90;;
3567;SDS011;1798;48.486;9.232;2023-09-18T02:40:36;14.20;;;4.90;;
3567;SDS011;1798;48.486;9.232;2023-09-18T02:43:03;13.13;;;5.37;;
3567;SDS011;1798;48.486;9.232;2023-09-18T02:45:30;17.00;;;4.90;;
3567;SDS011;1798;48.486;9.232;2023-09-18T02:47:56;10.57;;;5.10;;
3567;SDS011;1798;48.486;9.232;2023-09-18T02:50:25;16.00;;;5.03;;
3567;SDS011;1798;48.486;9.232;2023-09-18T02:52:51;14.23;;;5.17;;
3567;SDS011;1798;48.486;9.232;2023-09-18T02:55:18;11.80;;;4.97;;
3567;SDS011;1798;48.486;9.232;2023-09-18T02:57:45;8.70;;;4.50;;
3567;SDS011;1798;48.486;9.232;2023-09-18T03:00:12;12.33;;;5.20;;
3567;SDS011;1798;48.486;9.232;2023-09-18T03:02:39;7.20;;;4.40;;
3567;SDS011;1798;48.486;9.232;2023-09-18T03:05:06;25.40;;;5.67;;
3567;SDS011;1798;48.486;9.232;2023-09-18T03:07:35;12.33;;;4.53;;
3567;SDS011;1798;48.486;9.232;2023-09-18T03:10:02;13.43;;;5.30;;
3567;SDS011;1798;48.486;9.232;2023-09-18T03:12:30;9.40;;;5.20;;
3567;SDS011;1798;48.486;9.232;2023-09-18T03:14:56;17.03;;;5.00;;
3567;SDS011;1798;48.486;9.232;2023-09-18T03:17:23;16.77;;;6.53;;
3567;SDS011;1798;48.486;9.232;2023-09-18T03:19:50;12.57;;;5.33;;
3567;SDS011;1798;48.486;9.232;2023-09-18T03:22:17;23.93;;;4.60;;
3567;SDS011;1798;48.486;9.232;2023-09-18T03:24:45;17.37;;;4.20;;
3567;SDS011;1798;48.486;9.232;2023-09-18T03:27:11;10.53;;;4.77;;
3567;SDS011;1798;48.486;9.232;2023-09-18T03:29:38;16.50;;;5.60;;
3567;SDS011;1798;48.486;9.232;2023-09-18T03:32:05;11.97;;;5.03;;
3567;SDS011;1798;48.486;9.232;2023-09-18T03:34:32;18.00;;;5.30;;
3567;SDS011;1798;48.486;9.232;2023-09-18T03:36:59;24.33;;;6.93;;
3567;SDS011;1798;48.486;9.232;2023-09-18T03:39:26;10.90;;;4.90;;
3567;SDS011;1798;48.486;9.232;2023-09-18T03:41:54;18.87;;;5.10;;
3567;SDS011;1798;48.486;9.232;2023-09-18T03:44:21;15.93;;;4.70;;
3567;SDS011;1798;48.486;9.232;2023-09-18T03:46:47;8.67;;;4.20;;
3567;SDS011;1798;48.486;9.232;2023-09-18T03:49:14;14.33;;;5.73;;
3567;SDS011;1798;48.486;9.232;2023-09-18T03:51:41;15.53;;;6.30;;
3567;SDS011;1798;48.486;9.232;2023-09-18T03:54:09;7.60;;;4.90;;
3567;SDS011;1798;48.486;9.232;2023-09-18T03:56:35;16.83;;;5.67;;
3567;SDS011;1798;48.486;9.232;2023-09-18T03:59:04;15.53;;;5.00;;
3567;SDS011;1798;48.486;9.232;2023-09-18T04:01:30;9.13;;;5.10;;
3567;SDS011;1798;48.486;9.232;2023-09-18T04:03:57;11.77;;;4.47;;
3567;SDS011;1798;48.486;9.232;2023-09-18T04:06:25;16.53;;;5.73;;
3567;SDS011;1798;48.486;9.232;2023-09-18T04:08:56;14.67;;;5.40;;
3567;SDS011;1798;48.486;9.232;2023-09-18T04:11:23;12.50;;;4.53;;
3567;SDS011;1798;48.486;9.232;2023-09-18T04:13:51;15.83;;;4.53;;
3567;SDS011;1798;48.486;9.232;2023-09-18T04:16:19;21.00;;;7.03;;
3567;SDS011;1798;48.486;9.232;2023-09-18T04:18:46;9.47;;;4.57;;
3567;SDS011;1798;48.486;9.232;2023-09-18T04:21:12;8.23;;;4.60;;
3567;SDS011;1798;48.486;9.232;2023-09-18T04:23:39;13.80;;;4.70;;
3567;SDS011;1798;48.486;9.232;2023-09-18T04:26:06;11.70;;;3.80;;
3567;SDS011;1798;48.486;9.232;2023-09-18T04:28:33;7.87;;;4.17;;
3567;SDS011;1798;48.486;9.232;2023-09-18T04:30:59;16.10;;;5.00;;
3567;SDS011;1798;48.486;9.232;2023-09-18T04:33:27;37.00;;;6.90;;
3567;SDS011;1798;48.486;9.232;2023-09-18T04:35:54;18.77;;;5.20;;
3567;SDS011;1798;48.486;9.232;2023-09-18T04:38:21;44.33;;;7.40;;
3567;SDS011;1798;48.486;9.232;2023-09-18T04:40:48;31.13;;;4.60;;
3567;SDS011;1798;48.486;9.232;2023-09-18T04:43:15;32.87;;;5.33;;
3567;SDS011;1798;48.486;9.232;2023-09-18T04:45:41;23.00;;;6.57;;
3567;SDS011;1798;48.486;9.232;2023-09-18T04:48:08;22.00;;;5.07;;
3567;SDS011;1798;48.486;9.232;2023-09-18T04:50:36;20.87;;;4.60;;
3567;SDS011;1798;48.486;9.232;2023-09-18T04:53:03;21.17;;;6.10;;
3567;SDS011;1798;48.486;9.232;2023-09-18T04:55:30;23.00;;;5.80;;
3567;SDS011;1798;48.486;9.232;2023-09-18T04:57:57;15.90;;;4.63;;
3567;SDS011;1798;48.486;9.232;2023-09-18T05:00:24;29.07;;;6.30;;
3567;SDS011;1798;48.486;9.232;2023-09-18T05:02:51;33.70;;;5.20;;
3567;SDS011;1798;48.486;9.232;2023-09-18T05:05:18;29.13;;;5.10;;
3567;SDS011;1798;48.486;9.232;2023-09-18T05:07:46;31.10;;;6.10;;
3567;SDS011;1798;48.486;9.232;2023-09-18T05:10:13;22.93;;;4.00;;
3567;SDS011;1798;48.486;9.232;2023-09-18T05:12:40;10.63;;;4.10;;
3567;SDS011;1798;48.486;9.232;2023-09-18T05:15:07;19.03;;;5.23;;
3567;SDS011;1798;48.486;9.232;2023-09-18T05:17:41;21.57;;;4.47;;
3567;SDS011;1798;48.486;9.232;2023-09-18T05:20:09;27.27;;;6.87;;
3567;SDS011;1798;48.486;9.232;2023-09-18T05:22:38;23.97;;;6.93;;
3567;SDS011;1798;48.486;9.232;2023-09-18T05:25:07;18.30;;;4.63;;
3567;SDS011;1798;48.486;9.232;2023-09-18T05:27:35;23.27;;;5.97;;
3567;SDS011;1798;48.486;9.232;2023-09-18T05:30:09;11.90;;;4.53;;
3567;SDS011;1798;48.486;9.232;2023-09-18T05:32:37;25.33;;;5.07;;
3567;SDS011;1798;48.486;9.232;2023-09-18T05:35:04;21.73;;;6.33;;
3567;SDS011;1798;48.486;9.232;2023-09-18T05:37:35;30.70;;;5.50;;
3567;SDS011;1798;48.486;9.232;2023-09-18T05:40:02;29.73;;;4.70;;
3567;SDS011;1798;48.486;9.232;2023-09-18T05:42:31;27.27;;;4.97;;
3567;SDS011;1798;48.486;9.232;2023-09-18T05:44:58;38.73;;;5.80;;
3567;SDS011;1798;48.486;9.232;2023-09-18T05:47:25;16.47;;;4.43;;
3567;SDS011;1798;48.486;9.232;2023-09-18T05:49:51;16.13;;;4.80;;
3567;SDS011;1798;48.486;9.232;2023-09-18T05:52:18;25.63;;;4.13;;
3567;SDS011;1798;48.486;9.232;2023-09-18T05:54:44;21.60;;;4.93;;
3567;SDS011;1798;48.486;9.232;2023-09-18T05:57:11;31.53;;;5.40;;
3567;SDS011;1798;48.486;9.232;2023-09-18T05:59:39;14.63;;;4.30;;
3567;SDS011;1798;48.486;9.232;2023-09-18T06:02:08;38.70;;;4.23;;
3567;SDS011;1798;48.486;9.232;2023-09-18T06:04:35;21.80;;;5.03;;
3567;SDS011;1798;48.486;9.232;2023-09-18T06:07:02;23.73;;;4.60;;
3567;SDS011;1798;48.486;9.232;2023-09-18T06:09:29;15.60;;;4.00;;
3567;SDS011;1798;48.486;9.232;2023-09-18T06:11:56;21.80;;;4.73;;
3567;SDS011;1798;48.486;9.232;2023-09-18T06:14:24;19.70;;;5.70;;
3567;SDS011;1798;48.486;9.232;2023-09-18T06:16:52;20.90;;;5.00;;
3567;SDS011;1798;48.486;9.232;2023-09-18T06:19:19;25.07;;;5.70;;
3567;SDS011;1798;48.486;9.232;2023-09-18T06:21:46;17.53;;;4.10;;
3567;SDS011;1798;48.486;9.232;2023-09-18T06:24:13;21.70;;;4.43;;
3567;SDS011;1798;48.486;9.232;2023-09-18T06:26:40;11.87;;;4.37;;
3567;SDS011;1798;48.486;9.232;2023-09-18T06:29:07;20.90;;;3.87;;
3567;SDS011;1798;48.486;9.232;2023-09-18T06:31:34;19.67;;;4.43;;
3567;SDS011;1798;48.486;9.232;2023-09-18T06:34:04;28.00;;;4.30;;
3567;SDS011;1798;48.486;9.232;2023-09-18T06:36:31;20.00;;;4.20;;
3567;SDS011;1798;48.486;9.232;2023-09-18T06:38:58;16.23;;;4.20;;
3567;SDS011;1798;48.486;9.232;2023-09-18T06:41:25;9.60;;;3.13;;
3567;SDS011;1798;48.486;9.232;2023-09-18T06:43:51;20.40;;;4.53;;
3567;SDS011;1798;48.486;9.232;2023-09-18T06:46:18;27.43;;;4.03;;
3567;SDS011;1798;48.486;9.232;2023-09-18T06:48:45;31.00;;;4.80;;
3567;SDS011;1798;48.486;9.232;2023-09-18T06:51:15;10.40;;;3.90;;
3567;SDS011;1798;48.486;9.232;2023-09-18T06:53:43;14.43;;;4.47;;
3567;SDS011;1798;48.486;9.232;2023-09-18T06:56:09;20.50;;;4.23;;
3567;SDS011;1798;48.486;9.232;2023-09-18T06:58:37;25.17;;;4.20;;
3567;SDS011;1798;48.486;9.232;2023-09-18T07:01:04;20.87;;;4.50;;
3567;SDS011;1798;48.486;9.232;2023-09-18T07:03:32;25.30;;;4.43;;
3567;SDS011;1798;48.486;9.232;2023-09-18T07:06:00;13.83;;;4.40;;
3567;SDS011;1798;48.486;9.232;2023-09-18T07:08:28;12.53;;;4.20;;
3567;SDS011;1798;48.486;9.232;2023-09-18T07:10:55;21.80;;;4.83;;
3567;SDS011;1798;48.486;9.232;2023-09-18T07:13:22;18.87;;;5.23;;
3567;SDS011;1798;48.486;9.232;2023-09-18T07:15:48;11.60;;;4.07;;
3567;SDS011;1798;48.486;9.232;2023-09-18T07:18:15;26.13;;;4.37;;
3567;SDS011;1798;48.486;9.232;2023-09-18T07:20:43;32.43;;;7.60;;
3567;SDS011;1798;48.486;9.232;2023-09-18T07:23:10;22.20;;;5.33;;
3567;SDS011;1798;48.486;9.232;2023-09-18T07:25:38;25.57;;;7.77;;
3567;SDS011;1798;48.486;9.232;2023-09-18T07:28:05;15.50;;;4.50;;
3567;SDS011;1798;48.486;9.232;2023-09-18T07:30:33;29.87;;;5.67;;
3567;SDS011;1798;48.486;9.232;2023-09-18T07:33:01;21.17;;;4.63;;
3567;SDS011;1798;48.486;9.232;2023-09-18T07:35:28;29.83;;;4.70;;
3567;SDS011;1798;48.486;9.232;2023-09-18T07:37:55;20.73;;;4.00;;
3567;SDS011;1798;48.486;9.232;2023-09-18T07:40:22;19.87;;;5.00;;
3567;SDS011;1798;48.486;9.232;2023-09-18T07:42:50;8.60;;;3.53;;
3567;SDS011;1798;48.486;9.232;2023-09-18T07:45:17;22.37;;;4.07;;
3567;SDS011;1798;48.486;9.232;2023-09-18T07:47:44;12.83;;;4.17;;
3567;SDS011;1798;48.486;9.232;2023-09-18T07:50:10;16.07;;;4.40;;
3567;SDS011;1798;48.486;9.232;2023-09-18T07:52:37;26.43;;;4.63;;
3567;SDS011;1798;48.486;9.232;2023-09-18T07:55:04;19.00;;;4.33;;
3567;SDS011;1798;48.486;9.232;2023-09-18T07:57:32;14.43;;;3.83;;
3567;SDS011;1798;48.486;9.232;2023-09-18T08:00:04;14.13;;;4.47;;
3567;SDS011;1798;48.486;9.232;2023-09-18T08:02:37;14.73;;;4.50;;
3567;SDS011;1798;48.486;9.232;2023-09-18T08:05:04;12.30;;;4.17;;
3567;SDS011;1798;48.486;9.232;2023-09-18T08:07:32;27.03;;;4.27;;
3567;SDS011;1798;48.486;9.232;2023-09-18T08:10:00;30.73;;;5.87;;
3567;SDS011;1798;48.486;9.232;2023-09-18T08:12:27;13.17;;;4.47;;
3567;SDS011;1798;48.486;9.232;2023-09-18T08:14:53;8.57;;;4.00;;
3567;SDS011;1798;48.486;9.232;2023-09-18T08:17:24;13.17;;;3.93;;
3567;SDS011;1798;48.486;9.232;2023-09-18T08:19:50;13.23;;;4.20;;
3567;SDS011;1798;48.486;9.232;2023-09-18T08:22:18;13.00;;;3.37;;
3567;SDS011;1798;48.486;9.232;2023-09-18T08:24:45;10.10;;;4.00;;
3567;SDS011;1798;48.486;9.232;2023-09-18T08:27:13;12.63;;;4.03;;
3567;SDS011;1798;48.486;9.232;2023-09-18T08:29:41;14.57;;;3.83;;
3567;SDS011;1798;48.486;9.232;2023-09-18T08:32:08;13.90;;;4.20;;
3567;SDS011;1798;48.486;9.232;2023-09-18T08:34:37;16.63;;;4.60;;
3567;SDS011;1798;48.486;9.232;2023-09-18T08:37:03;22.40;;;5.20;;
3567;SDS011;1798;48.486;9.232;2023-09-18T08:39:30;12.57;;;4.57;;
3567;SDS011;1798;48.486;9.232;2023-09-18T08:41:58;12.00;;;4.37;;
3567;SDS011;1798;48.486;9.232;2023-09-18T08:44:27;8.43;;;3.20;;
3567;SDS011;1798;48.486;9.232;2023-09-18T08:46:54;8.57;;;2.83;;
3567;SDS011;1798;48.486;9.232;2023-09-18T08:49:21;9.23;;;3.03;;
3567;SDS011;1798;48.486;9.232;2023-09-18T08:51:51;15.57;;;3.67;;
3567;SDS011;1798;48.486;9.232;2023-09-18T08:54:18;12.53;;;3.60;;
3567;SDS011;1798;48.486;9.232;2023-09-18T08:56:45;13.53;;;3.50;;
3567;SDS011;1798;48.486;9.232;2023-09-18T08:59:12;11.60;;;2.93;;
3567;SDS011;1798;48.486;9.232;2023-09-18T09:01:39;8.40;;;2.87;;
3567;SDS011;1798;48.486;9.232;2023-09-18T09:04:06;11.67;;;3.13;;
3567;SDS011;1798;48.486;9.232;2023-09-18T09:06:32;15.43;;;2.93;;
3567;SDS011;1798;48.486;9.232;2023-09-18T09:09:02;7.00;;;2.53;;
3567;SDS011;1798;48.486;9.232;2023-09-18T09:11:29;37.10;;;3.33;;
3567;SDS011;1798;48.486;9.232;2023-09-18T09:14:09;8.10;;;2.80;;
3567;SDS011;1798;48.486;9.232;2023-09-18T09:16:41;7.23;;;3.10;;
3567;SDS011;1798;48.486;9.232;2023-09-18T09:19:08;8.40;;;2.90;;
3567;SDS011;1798;48.486;9.232;2023-09-18T09:21:38;11.10;;;3.00;;
3567;SDS011;1798;48.486;9.232;2023-09-18T09:24:07;9.77;;;2.50;;
3567;SDS011;1798;48.486;9.232;2023-09-18T09:26:33;5.93;;;2.83;;
3567;SDS011;1798;48.486;9.232;2023-09-18T09:29:09;17.03;;;2.47;;
3567;SDS011;1798;48.486;9.232;2023-09-18T09:31:43;7.00;;;2.73;;
3567;SDS011;1798;48.486;9.232;2023-09-18T09:34:09;11.50;;;3.87;;
3567;SDS011;1798;48.486;9.232;2023-09-18T09:36:36;15.03;;;3.47;;
3567;SDS011;1798;48.486;9.232;2023-09-18T09:39:06;7.90;;;3.90;;
3567;SDS011;1798;48.486;9.232;2023-09-18T09:41:33;7.30;;;3.17;;
3567;SDS011;1798;48.486;9.232;2023-09-18T09:44:00;10.60;;;3.00;;
3567;SDS011;1798;48.486;9.232;2023-09-18T09:46:27;12.13;;;2.97;;
3567;SDS011;1798;48.486;9.232;2023-09-18T09:48:58;18.73;;;3.17;;
3567;SDS011;1798;48.486;9.232;2023-09-18T09:51:26;8.83;;;3.47;;
3567;SDS011;1798;48.486;9.232;2023-09-18T09:53:56;12.80;;;2.63;;
3567;SDS011;1798;48.486;9.232;2023-09-18T09:56:43;6.50;;;2.47;;
3567;SDS011;1798;48.486;9.232;2023-09-18T09:59:11;10.97;;;2.53;;
3567;SDS011;1798;48.486;9.232;2023-09-18T10:01:39;8.37;;;3.40;;
3567;SDS011;1798;48.486;9.232;2023-09-18T10:04:10;17.77;;;3.27;;
3567;SDS011;1798;48.486;9.232;2023-09-18T10:06:39;13.40;;;3.40;;
3567;SDS011;1798;48.486;9.232;2023-09-18T10:09:08;16.53;;;3.00;;
3567;SDS011;1798;48.486;9.232;2023-09-18T10:11:37;6.60;;;2.83;;
3567;SDS011;1798;48.486;9.232;2023-09-18T10:14:09;10.80;;;2.67;;
3567;SDS011;1798;48.486;9.232;2023-09-18T10:16:41;12.40;;;3.50;;
3567;SDS011;1798;48.486;9.232;2023-09-18T10:19:14;5.23;;;2.20;;
3567;SDS011;1798;48.486;9.232;2023-09-18T10:21:49;7.40;;;2.53;;
3567;SDS011;1798;48.486;9.232;2023-09-18T10:24:26;7.63;;;3.13;;
3567;SDS011;1798;48.486;9.232;2023-09-18T10:26:56;6.73;;;2.40;;
3567;SDS011;1798;48.486;9.232;2023-09-18T10:29:25;9.23;;;3.30;;
3567;SDS011;1798;48.486;9.232;2023-09-18T10:31:53;7.80;;;2.30;;
3567;SDS011;1798;48.486;9.232;2023-09-18T10:34:21;22.83;;;3.20;;
3567;SDS011;1798;48.486;9.232;2023-09-18T10:36:49;5.97;;;2.80;;
3567;SDS011;1798;48.486;9.232;2023-09-18T10:39:17;11.53;;;3.43;;
3567;SDS011;1798;48.486;9.232;2023-09-18T10:41:46;8.80;;;3.00;;
3567;SDS011;1798;48.486;9.232;2023-09-18T10:44:14;9.00;;;3.00;;
3567;SDS011;1798;48.486;9.232;2023-09-18T10:46:44;11.57;;;2.60;;
3567;SDS011;1798;48.486;9.232;2023-09-18T10:49:11;12.50;;;3.27;;
3567;SDS011;1798;48.486;9.232;2023-09-18T10:51:37;8.10;;;2.73;;
3567;SDS011;1798;48.486;9.232;2023-09-18T10:54:07;7.40;;;2.83;;
3567;SDS011;1798;48.486;9.232;2023-09-18T10:56:34;5.83;;;2.40;;
3567;SDS011;1798;48.486;9.232;2023-09-18T10:59:01;13.20;;;3.60;;
3567;SDS011;1798;48.486;9.232;2023-09-18T11:01:29;12.30;;;4.63;;
3567;SDS011;1798;48.486;9.232;2023-09-18T11:03:59;7.10;;;2.80;;
3567;SDS011;1798;48.486;9.232;2023-09-18T11:06:27;6.30;;;2.50;;
3567;SDS011;1798;48.486;9.232;2023-09-18T11:08:59;14.00;;;3.33;;
3567;SDS011;1798;48.486;9.232;2023-09-18T11:11:29;9.83;;;3.13;;
3567;SDS011;1798;48.486;9.232;2023-09-18T11:13:58;9.70;;;2.83;;
3567;SDS011;1798;48.486;9.232;2023-09-18T11:16:34;18.93;;;4.10;;
3567;SDS011;1798;48.486;9.232;2023-09-18T11:19:12;12.50;;;2.43;;
3567;SDS011;1798;48.486;9.232;2023-09-18T11:21:40;14.63;;;3.20;;
3567;SDS011;1798;48.486;9.232;2023-09-18T11:24:08;10.30;;;3.33;;
3567;SDS011;1798;48.486;9.232;2023-09-18T11:26:43;11.33;;;3.70;;
3567;SDS011;1798;48.486;9.232;2023-09-18T11:29:13;8.77;;;3.57;;
3567;SDS011;1798;48.486;9.232;2023-09-18T11:31:41;10.43;;;3.03;;
3567;SDS011;1798;48.486;9.232;2023-09-18T11:34:12;9.03;;;2.93;;
3567;SDS011;1798;48.486;9.232;2023-09-18T11:36:39;10.00;;;3.03;;
3567;SDS011;1798;48.486;9.232;2023-09-18T11:39:06;10.30;;;3.23;;
3567;SDS011;1798;48.486;9.232;2023-09-18T11:41:34;9.53;;;3.00;;
3567;SDS011;1798;48.486;9.232;2023-09-18T11:46:58;9.83;;;2.90;;
3567;SDS011;1798;48.486;9.232;2023-09-18T11:49:27;9.00;;;3.03;;
3567;SDS011;1798;48.486;9.232;2023-09-18T11:51:57;15.03;;;3.13;;
3567;SDS011;1798;48.486;9.232;2023-09-18T11:54:24;10.73;;;3.40;;
3567;SDS011;1798;48.486;9.232;2023-09-18T11:56:51;9.73;;;2.80;;
3567;SDS011;1798;48.486;9.232;2023-09-18T11:59:18;20.73;;;3.30;;
3567;SDS011;1798;48.486;9.232;2023-09-18T12:01:52;23.33;;;3.27;;
3567;SDS011;1798;48.486;9.232;2023-09-18T12:04:28;11.60;;;2.87;;
3567;SDS011;1798;48.486;9.232;2023-09-18T12:06:54;15.03;;;3.47;;
3567;SDS011;1798;48.486;9.232;2023-09-18T12:09:21;8.53;;;3.00;;
3567;SDS011;1798;48.486;9.232;2023-09-18T12:11:50;12.17;;;3.27;;
3567;SDS011;1798;48.486;9.232;2023-09-18T12:14:18;7.83;;;2.93;;
3567;SDS011;1798;48.486;9.232;2023-09-18T12:16:46;16.63;;;3.30;;
3567;SDS011;1798;48.486;9.232;2023-09-18T12:19:16;10.50;;;3.50;;
3567;SDS011;1798;48.486;9.232;2023-09-18T12:21:45;11.83;;;3.27;;
3567;SDS011;1798;48.486;9.232;2023-09-18T12:24:13;16.37;;;3.83;;
3567;SDS011;1798;48.486;9.232;2023-09-18T12:26:40;10.63;;;3.37;;
3567;SDS011;1798;48.486;9.232;2023-09-18T12:29:07;12.13;;;2.63;;
3567;SDS011;1798;48.486;9.232;2023-09-18T12:31:35;6.40;;;3.07;;
3567;SDS011;1798;48.486;9.232;2023-09-18T12:34:02;8.43;;;2.90;;
3567;SDS011;1798;48.486;9.232;2023-09-18T12:36:28;10.20;;;2.87;;
3567;SDS011;1798;48.486;9.232;2023-09-18T12:38:57;12.50;;;2.73;;
3567;SDS011;1798;48.486;9.232;2023-09-18T12:41:26;15.07;;;3.90;;
3567;SDS011;1798;48.486;9.232;2023-09-18T12:43:53;12.70;;;3.30;;
3567;SDS011;1798;48.486;9.232;2023-09-18T12:46:20;10.60;;;3.83;;
3567;SDS011;1798;48.486;9.232;2023-09-18T12:48:47;10.90;;;3.80;;
3567;SDS011;1798;48.486;9.232;2023-09-18T12:51:14;11.00;;;3.80;;
3567;SDS011;1798;48.486;9.232;2023-09-18T12:53:46;9.40;;;3.10;;
3567;SDS011;1798;48.486;9.232;2023-09-18T12:56:14;10.13;;;3.23;;
3567;SDS011;1798;48.486;9.232;2023-09-18T12:58:41;16.43;;;4.00;;
3567;SDS011;1798;48.486;9.232;2023-09-18T13:01:08;16.90;;;2.93;;
3567;SDS011;1798;48.486;9.232;2023-09-18T13:03:41;9.50;;;3.27;;
3567;SDS011;1798;48.486;9.232;2023-09-18T13:06:09;16.47;;;3.77;;
3567;SDS011;1798;48.486;9.232;2023-09-18T13:08:36;19.40;;;3.37;;
3567;SDS011;1798;48.486;9.232;2023-09-18T13:11:03;15.50;;;3.70;;
3567;SDS011;1798;48.486;9.232;2023-09-18T13:13:33;6.20;;;2.80;;
3567;SDS011;1798;48.486;9.232;2023-09-18T13:16:00;11.70;;;3.40;;
3567;SDS011;1798;48.486;9.232;2023-09-18T13:18:29;29.13;;;4.70;;
3567;SDS011;1798;48.486;9.232;2023-09-18T13:20:56;8.93;;;3.60;;
3567;SDS011;1798;48.486;9.232;2023-09-18T13:23:27;12.53;;;3.10;;
3567;SDS011;1798;48.486;9.232;2023-09-18T13:25:58;14.20;;;3.53;;
3567;SDS011;1798;48.486;9.232;2023-09-18T13:28:25;6.57;;;2.70;;
3567;SDS011;1798;48.486;9.232;2023-09-18T13:30:53;11.53;;;3.50;;
3567;SDS011;1798;48.486;9.232;2023-09-18T13:33:20;23.37;;;4.67;;
3567;SDS011;1798;48.486;9.232;2023-09-18T13:35:48;12.90;;;3.00;;
3567;SDS011;1798;48.486;9.232;2023-09-18T13:38:15;7.80;;;3.47;;
3567;SDS011;1798;48.486;9.232;2023-09-18T13:40:42;6.80;;;2.83;;
3567;SDS011;1798;48.486;9.232;2023-09-18T13:43:09;8.20;;;3.50;;
3567;SDS011;1798;48.486;9.232;2023-09-18T13:45:37;12.40;;;3.13;;
3567;SDS011;1798;48.486;9.232;2023-09-18T13:48:06;14.23;;;3.53;;
3567;SDS011;1798;48.486;9.232;2023-09-18T13:50:33;6.17;;;2.77;;
3567;SDS011;1798;48.486;9.232;2023-09-18T13:53:00;11.60;;;2.67;;
3567;SDS011;1798;48.486;9.232;2023-09-18T13:55:29;6.60;;;2.93;;
3567;SDS011;1798;48.486;9.232;2023-09-18T13:57:55;23.57;;;5.20;;
3567;SDS011;1798;48.486;9.232;2023-09-18T14:00:22;7.03;;;2.90;;
3567;SDS011;1798;48.486;9.232;2023-09-18T14:02:50;9.27;;;3.70;;
3567;SDS011;1798;48.486;9.232;2023-09-18T14:05:18;12.83;;;3.10;;
3567;SDS011;1798;48.486;9.232;2023-09-18T14:07:46;13.97;;;3.67;;
3567;SDS011;1798;48.486;9.232;2023-09-18T14:10:13;6.73;;;3.30;;
3567;SDS011;1798;48.486;9.232;2023-09-18T14:12:41;6.70;;;2.50;;
3567;SDS011;1798;48.486;9.232;2023-09-18T14:15:08;79.57;;;9.27;;
3567;SDS011;1798;48.486;9.232;2023-09-18T14:17:36;18.63;;;3.57;;
3567;SDS011;1798;48.486;9.232;2023-09-18T14:20:04;19.50;;;3.00;;
3567;SDS011;1798;48.486;9.232;2023-09-18T14:22:33;9.60;;;3.07;;
3567;SDS011;1798;48.486;9.232;2023-09-18T14:25:00;23.53;;;3.63;;
3567;SDS011;1798;48.486;9.232;2023-09-18T14:27:29;44.80;;;3.97;;
3567;SDS011;1798;48.486;9.232;2023-09-18T14:29:56;14.53;;;3.93;;
3567;SDS011;1798;48.486;9.232;2023-09-18T14:32:23;14.00;;;4.40;;
3567;SDS011;1798;48.486;9.232;2023-09-18T14:34:50;7.33;;;3.10;;
3567;SDS011;1798;48.486;9.232;2023-09-18T14:37:17;7.83;;;3.20;;
3567;SDS011;1798;48.486;9.232;2023-09-18T14:39:44;11.10;;;3.47;;
3567;SDS011;1798;48.486;9.232;2023-09-18T14:42:12;14.23;;;3.37;;
3567;SDS011;1798;48.486;9.232;2023-09-18T14:44:38;17.80;;;3.47;;
3567;SDS011;1798;48.486;9.232;2023-09-18T14:47:09;6.47;;;2.53;;
3567;SDS011;1798;48.486;9.232;2023-09-18T14:49:36;7.00;;;2.77;;
3567;SDS011;1798;48.486;9.232;2023-09-18T14:52:03;13.20;;;3.53;;
3567;SDS011;1798;48.486;9.232;2023-09-18T14:54:30;9.60;;;2.73;;
3567;SDS011;1798;48.486;9.232;2023-09-18T14:56:58;12.20;;;2.60;;
3567;SDS011;1798;48.486;9.232;2023-09-18T14:59:26;6.03;;;2.67;;
3567;SDS011;1798;48.486;9.232;2023-09-18T15:01:53;7.77;;;3.00;;
3567;SDS011;1798;48.486;9.232;2023-09-18T15:04:19;9.47;;;3.03;;
3567;SDS011;1798;48.486;9.232;2023-09-18T15:06:47;12.17;;;3.80;;
3567;SDS011;1798;48.486;9.232;2023-09-18T15:09:14;11.70;;;3.47;;
3567;SDS011;1798;48.486;9.232;2023-09-18T15:11:40;8.33;;;2.70;;